sensor_id;sensor_type;location;lat;lon;timestamp;P1;durP1;ratioP1;P2;durP2;ratioP2
57297;SDS011;43147;50.972;18.210;2023-03-07T00:00:40;77.70;;;28.60;;
57297;SDS011;43147;50.972;18.210;2023-03-07T00:03:06;83.30;;;29.90;;
57297;SDS011;43147;50.972;18.210;2023-03-07T00:05:31;94.90;;;32.20;;
57297;SDS011;43147;50.972;18.210;2023-03-07T00:07:57;104.70;;;34.20;;
57297;SDS011;43147;50.972;18.210;2023-03-07T00:10:23;104.80;;;33.50;;
57297;SDS011;43147;50.972;18.210;2023-03-07T00:12:49;96.70;;;30.90;;
57297;SDS011;43147;50.972;18.210;2023-03-07T00:15:15;94.00;;;32.50;;
57297;SDS011;43147;50.972;18.210;2023-03-07T00:17:41;108.60;;;32.50;;
57297;SDS011;43147;50.972;18.210;2023-03-07T00:20:08;96.20;;;33.90;;
57297;SDS011;43147;50.972;18.210;2023-03-07T00:22:43;75.20;;;28.40;;
57297;SDS011;43147;50.972;18.210;2023-03-07T00:25:11;79.40;;;29.30;;
57297;SDS011;43147;50.972;18.210;2023-03-07T00:27:36;86.50;;;28.50;;
57297;SDS011;43147;50.972;18.210;2023-03-07T00:30:02;81.50;;;30.30;;
57297;SDS011;43147;50.972;18.210;2023-03-07T00:32:29;75.50;;;27.30;;
57297;SDS011;43147;50.972;18.210;2023-03-07T00:34:57;61.00;;;27.30;;
57297;SDS011;43147;50.972;18.210;2023-03-07T00:37:24;64.90;;;26.60;;
57297;SDS011;43147;50.972;18.210;2023-03-07T00:39:50;62.80;;;24.50;;
57297;SDS011;43147;50.972;18.210;2023-03-07T00:42:15;68.60;;;26.20;;
57297;SDS011;43147;50.972;18.210;2023-03-07T00:44:41;56.00;;;23.90;;
57297;SDS011;43147;50.972;18.210;2023-03-07T00:47:07;56.60;;;23.80;;
57297;SDS011;43147;50.972;18.210;2023-03-07T00:49:33;58.80;;;26.70;;
57297;SDS011;43147;50.972;18.210;2023-03-07T00:51:58;60.70;;;22.70;;
57297;SDS011;43147;50.972;18.210;2023-03-07T00:54:24;63.10;;;23.20;;
57297;SDS011;43147;50.972;18.210;2023-03-07T00:56:49;61.20;;;25.50;;
57297;SDS011;43147;50.972;18.210;2023-03-07T00:59:15;63.20;;;24.30;;
57297;SDS011;43147;50.972;18.210;2023-03-07T01:01:41;61.00;;;24.50;;
57297;SDS011;43147;50.972;18.210;2023-03-07T01:04:06;63.70;;;23.50;;
57297;SDS011;43147;50.972;18.210;2023-03-07T01:06:32;56.80;;;22.70;;
57297;SDS011;43147;50.972;18.210;2023-03-07T01:08:59;53.00;;;22.20;;
57297;SDS011;43147;50.972;18.210;2023-03-07T01:11:30;56.20;;;22.70;;
57297;SDS011;43147;50.972;18.210;2023-03-07T01:13:59;54.30;;;22.40;;
57297;SDS011;43147;50.972;18.210;2023-03-07T01:16:29;46.30;;;19.70;;
57297;SDS011;43147;50.972;18.210;2023-03-07T01:18:57;45.10;;;20.90;;
57297;SDS011;43147;50.972;18.210;2023-03-07T01:21:26;46.20;;;19.80;;
57297;SDS011;43147;50.972;18.210;2023-03-07T01:23:53;48.60;;;20.90;;
57297;SDS011;43147;50.972;18.210;2023-03-07T01:26:23;47.80;;;21.50;;
57297;SDS011;43147;50.972;18.210;2023-03-07T01:28:51;50.50;;;21.40;;
57297;SDS011;43147;50.972;18.210;2023-03-07T01:31:18;51.50;;;21.70;;
57297;SDS011;43147;50.972;18.210;2023-03-07T01:33:45;56.10;;;22.80;;
57297;SDS011;43147;50.972;18.210;2023-03-07T01:36:15;46.90;;;20.40;;
57297;SDS011;43147;50.972;18.210;2023-03-07T01:38:59;53.10;;;22.00;;
57297;SDS011;43147;50.972;18.210;2023-03-07T01:41:28;53.10;;;20.80;;
57297;SDS011;43147;50.972;18.210;2023-03-07T01:43:57;58.20;;;21.00;;
57297;SDS011;43147;50.972;18.210;2023-03-07T01:46:24;56.60;;;25.70;;
57297;SDS011;43147;50.972;18.210;2023-03-07T01:49:10;50.30;;;23.50;;
57297;SDS011;43147;50.972;18.210;2023-03-07T01:54:26;55.50;;;24.40;;
57297;SDS011;43147;50.972;18.210;2023-03-07T01:56:52;51.00;;;20.30;;
57297;SDS011;43147;50.972;18.210;2023-03-07T01:59:23;50.80;;;20.90;;
57297;SDS011;43147;50.972;18.210;2023-03-07T02:01:54;55.30;;;21.80;;
57297;SDS011;43147;50.972;18.210;2023-03-07T02:04:27;50.30;;;23.60;;
57297;SDS011;43147;50.972;18.210;2023-03-07T02:06:56;53.70;;;23.30;;
57297;SDS011;43147;50.972;18.210;2023-03-07T02:09:23;58.60;;;23.20;;
57297;SDS011;43147;50.972;18.210;2023-03-07T02:11:50;54.40;;;24.10;;
57297;SDS011;43147;50.972;18.210;2023-03-07T02:14:16;63.30;;;25.00;;
57297;SDS011;43147;50.972;18.210;2023-03-07T02:16:41;59.10;;;25.10;;
57297;SDS011;43147;50.972;18.210;2023-03-07T02:19:15;59.00;;;26.00;;
57297;SDS011;43147;50.972;18.210;2023-03-07T02:21:52;55.10;;;25.30;;
57297;SDS011;43147;50.972;18.210;2023-03-07T02:24:27;64.90;;;25.50;;
57297;SDS011;43147;50.972;18.210;2023-03-07T02:26:59;60.60;;;25.10;;
57297;SDS011;43147;50.972;18.210;2023-03-07T02:29:25;60.60;;;25.90;;
57297;SDS011;43147;50.972;18.210;2023-03-07T02:31:50;59.70;;;25.70;;
57297;SDS011;43147;50.972;18.210;2023-03-07T02:34:17;55.80;;;26.30;;
57297;SDS011;43147;50.972;18.210;2023-03-07T02:36:43;62.10;;;25.60;;
57297;SDS011;43147;50.972;18.210;2023-03-07T02:39:11;72.00;;;27.50;;
57297;SDS011;43147;50.972;18.210;2023-03-07T02:41:38;85.00;;;31.00;;
57297;SDS011;43147;50.972;18.210;2023-03-07T02:44:04;87.10;;;34.80;;
57297;SDS011;43147;50.972;18.210;2023-03-07T02:46:30;85.10;;;34.80;;
57297;SDS011;43147;50.972;18.210;2023-03-07T02:48:55;73.10;;;31.50;;
57297;SDS011;43147;50.972;18.210;2023-03-07T02:51:21;83.00;;;30.60;;
57297;SDS011;43147;50.972;18.210;2023-03-07T02:53:46;65.30;;;28.20;;
57297;SDS011;43147;50.972;18.210;2023-03-07T02:56:12;72.10;;;30.40;;
57297;SDS011;43147;50.972;18.210;2023-03-07T02:58:39;63.70;;;27.30;;
57297;SDS011;43147;50.972;18.210;2023-03-07T03:01:04;65.30;;;26.90;;
57297;SDS011;43147;50.972;18.210;2023-03-07T03:03:30;69.70;;;27.30;;
57297;SDS011;43147;50.972;18.210;2023-03-07T03:05:56;70.80;;;26.50;;
57297;SDS011;43147;50.972;18.210;2023-03-07T03:08:22;67.10;;;28.10;;
57297;SDS011;43147;50.972;18.210;2023-03-07T03:10:53;75.20;;;30.40;;
57297;SDS011;43147;50.972;18.210;2023-03-07T03:13:20;92.80;;;32.20;;
57297;SDS011;43147;50.972;18.210;2023-03-07T03:15:46;93.60;;;30.60;;
57297;SDS011;43147;50.972;18.210;2023-03-07T03:18:12;116.60;;;38.00;;
57297;SDS011;43147;50.972;18.210;2023-03-07T03:20:38;152.60;;;50.70;;
57297;SDS011;43147;50.972;18.210;2023-03-07T03:23:05;133.10;;;48.30;;
57297;SDS011;43147;50.972;18.210;2023-03-07T03:25:31;122.30;;;45.50;;
57297;SDS011;43147;50.972;18.210;2023-03-07T03:27:56;104.20;;;35.40;;
57297;SDS011;43147;50.972;18.210;2023-03-07T03:30:22;92.30;;;33.50;;
57297;SDS011;43147;50.972;18.210;2023-03-07T03:32:47;101.30;;;35.30;;
57297;SDS011;43147;50.972;18.210;2023-03-07T03:35:13;94.40;;;33.00;;
57297;SDS011;43147;50.972;18.210;2023-03-07T03:37:39;97.70;;;32.90;;
57297;SDS011;43147;50.972;18.210;2023-03-07T03:40:05;94.90;;;33.90;;
57297;SDS011;43147;50.972;18.210;2023-03-07T03:42:42;85.20;;;32.10;;
57297;SDS011;43147;50.972;18.210;2023-03-07T03:45:08;82.70;;;30.30;;
57297;SDS011;43147;50.972;18.210;2023-03-07T03:47:35;87.00;;;30.10;;
57297;SDS011;43147;50.972;18.210;2023-03-07T03:50:02;81.20;;;32.40;;
57297;SDS011;43147;50.972;18.210;2023-03-07T03:52:28;85.50;;;31.80;;
57297;SDS011;43147;50.972;18.210;2023-03-07T03:54:54;87.50;;;32.70;;
57297;SDS011;43147;50.972;18.210;2023-03-07T03:57:19;96.60;;;33.00;;
57297;SDS011;43147;50.972;18.210;2023-03-07T03:59:45;90.10;;;34.30;;
57297;SDS011;43147;50.972;18.210;2023-03-07T04:02:11;84.80;;;31.00;;
57297;SDS011;43147;50.972;18.210;2023-03-07T04:04:40;91.60;;;29.80;;
57297;SDS011;43147;50.972;18.210;2023-03-07T04:07:06;91.50;;;31.80;;
57297;SDS011;43147;50.972;18.210;2023-03-07T04:09:31;93.20;;;31.80;;
57297;SDS011;43147;50.972;18.210;2023-03-07T04:11:57;95.10;;;32.70;;
57297;SDS011;43147;50.972;18.210;2023-03-07T04:14:25;93.40;;;33.60;;
57297;SDS011;43147;50.972;18.210;2023-03-07T04:16:50;94.00;;;33.30;;
57297;SDS011;43147;50.972;18.210;2023-03-07T04:19:16;99.10;;;35.20;;
57297;SDS011;43147;50.972;18.210;2023-03-07T04:21:42;98.90;;;34.80;;
57297;SDS011;43147;50.972;18.210;2023-03-07T04:24:08;91.50;;;31.30;;
57297;SDS011;43147;50.972;18.210;2023-03-07T04:26:34;95.90;;;31.90;;
57297;SDS011;43147;50.972;18.210;2023-03-07T04:29:00;91.30;;;32.00;;
57297;SDS011;43147;50.972;18.210;2023-03-07T04:31:26;75.90;;;29.20;;
57297;SDS011;43147;50.972;18.210;2023-03-07T04:33:52;82.40;;;30.10;;
57297;SDS011;43147;50.972;18.210;2023-03-07T04:36:19;78.50;;;30.70;;
57297;SDS011;43147;50.972;18.210;2023-03-07T04:38:45;83.10;;;29.30;;
57297;SDS011;43147;50.972;18.210;2023-03-07T04:41:12;69.70;;;27.30;;
57297;SDS011;43147;50.972;18.210;2023-03-07T04:43:39;82.50;;;32.00;;
57297;SDS011;43147;50.972;18.210;2023-03-07T04:46:05;84.70;;;29.60;;
57297;SDS011;43147;50.972;18.210;2023-03-07T04:48:30;92.50;;;33.00;;
57297;SDS011;43147;50.972;18.210;2023-03-07T04:50:56;69.50;;;29.40;;
57297;SDS011;43147;50.972;18.210;2023-03-07T04:53:22;79.30;;;30.10;;
57297;SDS011;43147;50.972;18.210;2023-03-07T04:55:47;83.30;;;31.10;;
57297;SDS011;43147;50.972;18.210;2023-03-07T04:58:13;86.10;;;30.40;;
57297;SDS011;43147;50.972;18.210;2023-03-07T05:00:42;71.70;;;27.10;;
57297;SDS011;43147;50.972;18.210;2023-03-07T05:03:09;84.00;;;30.80;;
57297;SDS011;43147;50.972;18.210;2023-03-07T05:05:36;79.00;;;31.40;;
57297;SDS011;43147;50.972;18.210;2023-03-07T05:08:02;82.80;;;29.30;;
57297;SDS011;43147;50.972;18.210;2023-03-07T05:10:28;78.20;;;28.20;;
57297;SDS011;43147;50.972;18.210;2023-03-07T05:12:55;82.40;;;28.70;;
57297;SDS011;43147;50.972;18.210;2023-03-07T05:15:21;76.40;;;30.20;;
57297;SDS011;43147;50.972;18.210;2023-03-07T05:17:46;73.00;;;26.90;;
57297;SDS011;43147;50.972;18.210;2023-03-07T05:20:12;72.60;;;27.40;;
57297;SDS011;43147;50.972;18.210;2023-03-07T05:22:38;72.00;;;29.10;;
57297;SDS011;43147;50.972;18.210;2023-03-07T05:25:04;84.70;;;30.20;;
57297;SDS011;43147;50.972;18.210;2023-03-07T05:27:30;72.20;;;28.10;;
57297;SDS011;43147;50.972;18.210;2023-03-07T05:29:56;78.00;;;30.90;;
57297;SDS011;43147;50.972;18.210;2023-03-07T05:32:21;83.00;;;29.70;;
57297;SDS011;43147;50.972;18.210;2023-03-07T05:34:47;83.50;;;32.20;;
57297;SDS011;43147;50.972;18.210;2023-03-07T05:37:13;86.30;;;33.60;;
57297;SDS011;43147;50.972;18.210;2023-03-07T05:39:38;103.20;;;36.20;;
57297;SDS011;43147;50.972;18.210;2023-03-07T05:42:04;111.10;;;36.20;;
57297;SDS011;43147;50.972;18.210;2023-03-07T05:44:30;106.20;;;33.20;;
57297;SDS011;43147;50.972;18.210;2023-03-07T05:46:55;91.00;;;33.90;;
57297;SDS011;43147;50.972;18.210;2023-03-07T05:49:21;97.20;;;35.30;;
57297;SDS011;43147;50.972;18.210;2023-03-07T05:51:46;88.90;;;32.10;;
57297;SDS011;43147;50.972;18.210;2023-03-07T05:54:12;89.90;;;33.10;;
57297;SDS011;43147;50.972;18.210;2023-03-07T05:56:37;87.50;;;32.50;;
57297;SDS011;43147;50.972;18.210;2023-03-07T05:59:03;83.40;;;33.70;;
57297;SDS011;43147;50.972;18.210;2023-03-07T06:01:32;90.10;;;35.40;;
57297;SDS011;43147;50.972;18.210;2023-03-07T06:03:58;78.20;;;30.00;;
57297;SDS011;43147;50.972;18.210;2023-03-07T06:06:24;77.10;;;31.70;;
57297;SDS011;43147;50.972;18.210;2023-03-07T06:08:50;73.10;;;31.40;;
57297;SDS011;43147;50.972;18.210;2023-03-07T06:11:15;69.40;;;30.00;;
57297;SDS011;43147;50.972;18.210;2023-03-07T06:13:41;78.40;;;31.90;;
57297;SDS011;43147;50.972;18.210;2023-03-07T06:16:06;65.90;;;32.10;;
57297;SDS011;43147;50.972;18.210;2023-03-07T06:18:32;73.50;;;33.30;;
57297;SDS011;43147;50.972;18.210;2023-03-07T06:20:58;68.10;;;32.60;;
57297;SDS011;43147;50.972;18.210;2023-03-07T06:23:26;63.80;;;32.50;;
57297;SDS011;43147;50.972;18.210;2023-03-07T06:25:53;66.80;;;32.30;;
57297;SDS011;43147;50.972;18.210;2023-03-07T06:28:18;69.60;;;32.00;;
57297;SDS011;43147;50.972;18.210;2023-03-07T06:30:44;53.10;;;30.60;;
57297;SDS011;43147;50.972;18.210;2023-03-07T06:33:10;55.00;;;31.00;;
57297;SDS011;43147;50.972;18.210;2023-03-07T06:35:40;48.50;;;29.70;;
57297;SDS011;43147;50.972;18.210;2023-03-07T06:38:06;55.30;;;31.40;;
57297;SDS011;43147;50.972;18.210;2023-03-07T06:40:32;51.70;;;30.40;;
57297;SDS011;43147;50.972;18.210;2023-03-07T06:42:58;50.10;;;30.30;;
57297;SDS011;43147;50.972;18.210;2023-03-07T06:45:24;51.20;;;30.40;;
57297;SDS011;43147;50.972;18.210;2023-03-07T06:47:50;38.60;;;27.20;;
57297;SDS011;43147;50.972;18.210;2023-03-07T06:50:15;43.70;;;27.50;;
57297;SDS011;43147;50.972;18.210;2023-03-07T06:52:41;41.40;;;26.30;;
57297;SDS011;43147;50.972;18.210;2023-03-07T06:55:07;38.80;;;27.00;;
57297;SDS011;43147;50.972;18.210;2023-03-07T06:57:34;39.00;;;29.90;;
57297;SDS011;43147;50.972;18.210;2023-03-07T07:00:00;42.20;;;29.70;;
57297;SDS011;43147;50.972;18.210;2023-03-07T07:02:26;39.80;;;29.80;;
57297;SDS011;43147;50.972;18.210;2023-03-07T07:04:52;37.40;;;28.50;;
57297;SDS011;43147;50.972;18.210;2023-03-07T07:07:17;36.90;;;29.40;;
57297;SDS011;43147;50.972;18.210;2023-03-07T07:09:43;34.70;;;27.80;;
57297;SDS011;43147;50.972;18.210;2023-03-07T07:12:09;34.40;;;27.20;;
57297;SDS011;43147;50.972;18.210;2023-03-07T07:14:34;37.40;;;29.30;;
57297;SDS011;43147;50.972;18.210;2023-03-07T07:17:00;44.00;;;31.70;;
57297;SDS011;43147;50.972;18.210;2023-03-07T07:19:25;38.70;;;29.40;;
57297;SDS011;43147;50.972;18.210;2023-03-07T07:21:51;34.10;;;22.80;;
57297;SDS011;43147;50.972;18.210;2023-03-07T07:24:17;36.80;;;23.20;;
57297;SDS011;43147;50.972;18.210;2023-03-07T07:26:44;39.80;;;24.00;;
57297;SDS011;43147;50.972;18.210;2023-03-07T07:29:09;36.30;;;22.80;;
57297;SDS011;43147;50.972;18.210;2023-03-07T07:31:35;34.70;;;22.90;;
57297;SDS011;43147;50.972;18.210;2023-03-07T07:34:01;41.80;;;24.10;;
57297;SDS011;43147;50.972;18.210;2023-03-07T07:36:27;40.50;;;26.70;;
57297;SDS011;43147;50.972;18.210;2023-03-07T07:38:54;38.20;;;29.70;;
57297;SDS011;43147;50.972;18.210;2023-03-07T07:41:19;40.00;;;25.10;;
57297;SDS011;43147;50.972;18.210;2023-03-07T07:43:45;36.80;;;26.40;;
57297;SDS011;43147;50.972;18.210;2023-03-07T07:46:12;36.50;;;22.90;;
57297;SDS011;43147;50.972;18.210;2023-03-07T07:48:39;35.20;;;23.70;;
57297;SDS011;43147;50.972;18.210;2023-03-07T07:51:04;32.50;;;22.00;;
57297;SDS011;43147;50.972;18.210;2023-03-07T07:53:30;35.50;;;25.70;;
57297;SDS011;43147;50.972;18.210;2023-03-07T07:55:56;32.90;;;26.10;;
57297;SDS011;43147;50.972;18.210;2023-03-07T07:58:22;33.20;;;25.70;;
57297;SDS011;43147;50.972;18.210;2023-03-07T08:00:48;33.30;;;26.40;;
57297;SDS011;43147;50.972;18.210;2023-03-07T08:03:14;30.20;;;24.60;;
57297;SDS011;43147;50.972;18.210;2023-03-07T08:05:46;29.60;;;24.10;;
57297;SDS011;43147;50.972;18.210;2023-03-07T08:08:18;27.00;;;22.90;;
57297;SDS011;43147;50.972;18.210;2023-03-07T08:10:44;32.80;;;25.00;;
57297;SDS011;43147;50.972;18.210;2023-03-07T08:13:14;28.90;;;24.50;;
57297;SDS011;43147;50.972;18.210;2023-03-07T08:15:42;31.70;;;22.00;;
57297;SDS011;43147;50.972;18.210;2023-03-07T08:18:07;26.30;;;21.50;;
57297;SDS011;43147;50.972;18.210;2023-03-07T08:20:38;24.90;;;20.40;;
57297;SDS011;43147;50.972;18.210;2023-03-07T08:23:05;24.60;;;20.50;;
57297;SDS011;43147;50.972;18.210;2023-03-07T08:25:31;25.90;;;21.30;;
57297;SDS011;43147;50.972;18.210;2023-03-07T08:27:57;28.70;;;22.00;;
57297;SDS011;43147;50.972;18.210;2023-03-07T08:30:27;30.30;;;22.70;;
57297;SDS011;43147;50.972;18.210;2023-03-07T08:32:54;32.70;;;23.90;;
57297;SDS011;43147;50.972;18.210;2023-03-07T08:35:21;29.10;;;22.60;;
57297;SDS011;43147;50.972;18.210;2023-03-07T08:37:47;28.40;;;23.10;;
57297;SDS011;43147;50.972;18.210;2023-03-07T08:40:14;28.10;;;21.80;;
57297;SDS011;43147;50.972;18.210;2023-03-07T08:42:40;24.70;;;19.90;;
57297;SDS011;43147;50.972;18.210;2023-03-07T08:45:07;26.20;;;20.50;;
57297;SDS011;43147;50.972;18.210;2023-03-07T08:47:33;27.70;;;20.50;;
57297;SDS011;43147;50.972;18.210;2023-03-07T08:49:59;25.10;;;20.00;;
57297;SDS011;43147;50.972;18.210;2023-03-07T08:52:25;22.30;;;18.20;;
57297;SDS011;43147;50.972;18.210;2023-03-07T08:54:50;23.90;;;17.60;;
57297;SDS011;43147;50.972;18.210;2023-03-07T08:57:16;23.20;;;18.50;;
57297;SDS011;43147;50.972;18.210;2023-03-07T08:59:42;25.40;;;18.60;;
57297;SDS011;43147;50.972;18.210;2023-03-07T09:02:09;24.60;;;19.50;;
57297;SDS011;43147;50.972;18.210;2023-03-07T09:04:35;21.10;;;17.60;;
57297;SDS011;43147;50.972;18.210;2023-03-07T09:07:01;21.90;;;16.50;;
57297;SDS011;43147;50.972;18.210;2023-03-07T09:09:28;19.00;;;16.90;;
57297;SDS011;43147;50.972;18.210;2023-03-07T09:11:55;19.50;;;16.80;;
57297;SDS011;43147;50.972;18.210;2023-03-07T09:14:21;17.30;;;15.50;;
57297;SDS011;43147;50.972;18.210;2023-03-07T09:16:46;19.90;;;15.40;;
57297;SDS011;43147;50.972;18.210;2023-03-07T09:19:12;18.00;;;13.40;;
57297;SDS011;43147;50.972;18.210;2023-03-07T09:21:37;16.80;;;14.30;;
57297;SDS011;43147;50.972;18.210;2023-03-07T09:24:04;15.30;;;13.10;;
57297;SDS011;43147;50.972;18.210;2023-03-07T09:26:29;180.90;;;60.90;;
57297;SDS011;43147;50.972;18.210;2023-03-07T09:28:55;111.60;;;56.50;;
57297;SDS011;43147;50.972;18.210;2023-03-07T09:31:20;79.90;;;56.90;;
57297;SDS011;43147;50.972;18.210;2023-03-07T09:33:46;18.80;;;17.00;;
57297;SDS011;43147;50.972;18.210;2023-03-07T09:36:12;14.20;;;11.90;;
57297;SDS011;43147;50.972;18.210;2023-03-07T09:38:38;21.20;;;19.20;;
57297;SDS011;43147;50.972;18.210;2023-03-07T09:41:18;16.90;;;15.30;;
57297;SDS011;43147;50.972;18.210;2023-03-07T09:52:13;13.50;;;12.30;;
57297;SDS011;43147;50.972;18.210;2023-03-07T09:54:59;13.30;;;11.90;;
57297;SDS011;43147;50.972;18.210;2023-03-07T10:05:38;24.40;;;18.80;;
57297;SDS011;43147;50.972;18.210;2023-03-07T10:08:17;23.50;;;19.00;;
57297;SDS011;43147;50.972;18.210;2023-03-07T10:19:01;80.40;;;36.50;;
57297;SDS011;43147;50.972;18.210;2023-03-07T10:26:41;138.00;;;70.50;;
57297;SDS011;43147;50.972;18.210;2023-03-07T10:29:23;47.60;;;35.80;;
57297;SDS011;43147;50.972;18.210;2023-03-07T10:31:58;24.50;;;20.80;;
57297;SDS011;43147;50.972;18.210;2023-03-07T10:34:36;23.80;;;19.20;;
57297;SDS011;43147;50.972;18.210;2023-03-07T10:37:09;19.10;;;15.80;;
57297;SDS011;43147;50.972;18.210;2023-03-07T10:39:40;17.30;;;14.70;;
57297;SDS011;43147;50.972;18.210;2023-03-07T10:42:11;35.00;;;24.20;;
57297;SDS011;43147;50.972;18.210;2023-03-07T10:44:38;23.00;;;16.50;;
57297;SDS011;43147;50.972;18.210;2023-03-07T10:47:04;190.70;;;80.70;;
57297;SDS011;43147;50.972;18.210;2023-03-07T10:49:40;85.20;;;48.10;;
57297;SDS011;43147;50.972;18.210;2023-03-07T10:52:16;25.70;;;20.20;;
57297;SDS011;43147;50.972;18.210;2023-03-07T10:54:51;27.60;;;22.40;;
57297;SDS011;43147;50.972;18.210;2023-03-07T10:57:17;27.10;;;20.80;;
57297;SDS011;43147;50.972;18.210;2023-03-07T10:59:44;23.50;;;17.40;;
57297;SDS011;43147;50.972;18.210;2023-03-07T11:02:28;22.00;;;16.50;;
57297;SDS011;43147;50.972;18.210;2023-03-07T11:04:57;20.00;;;15.90;;
57297;SDS011;43147;50.972;18.210;2023-03-07T11:07:33;20.70;;;15.20;;
57297;SDS011;43147;50.972;18.210;2023-03-07T11:10:00;18.80;;;15.20;;
57297;SDS011;43147;50.972;18.210;2023-03-07T11:12:43;17.70;;;14.70;;
57297;SDS011;43147;50.972;18.210;2023-03-07T11:15:10;21.80;;;15.90;;
57297;SDS011;43147;50.972;18.210;2023-03-07T11:17:41;20.70;;;16.40;;
57297;SDS011;43147;50.972;18.210;2023-03-07T11:22:46;360.20;;;113.20;;
57297;SDS011;43147;50.972;18.210;2023-03-07T11:27:38;304.60;;;103.40;;
57297;SDS011;43147;50.972;18.210;2023-03-07T11:32:40;19.40;;;13.10;;
57297;SDS011;43147;50.972;18.210;2023-03-07T11:35:22;23.80;;;16.60;;
57297;SDS011;43147;50.972;18.210;2023-03-07T11:38:27;15.40;;;10.30;;
57297;SDS011;43147;50.972;18.210;2023-03-07T11:41:01;14.00;;;9.00;;
57297;SDS011;43147;50.972;18.210;2023-03-07T11:54:24;15.10;;;8.80;;
57297;SDS011;43147;50.972;18.210;2023-03-07T11:56:52;13.60;;;9.00;;
57297;SDS011;43147;50.972;18.210;2023-03-07T12:05:17;66.90;;;24.30;;
57297;SDS011;43147;50.972;18.210;2023-03-07T12:15:40;20.30;;;12.40;;
57297;SDS011;43147;50.972;18.210;2023-03-07T12:20:42;16.30;;;9.10;;
57297;SDS011;43147;50.972;18.210;2023-03-07T12:23:52;15.00;;;9.40;;
57297;SDS011;43147;50.972;18.210;2023-03-07T12:31:53;18.10;;;10.60;;
57297;SDS011;43147;50.972;18.210;2023-03-07T12:34:44;17.20;;;10.30;;
57297;SDS011;43147;50.972;18.210;2023-03-07T12:37:12;12.00;;;8.80;;
57297;SDS011;43147;50.972;18.210;2023-03-07T12:39:48;13.90;;;9.30;;
57297;SDS011;43147;50.972;18.210;2023-03-07T12:47:47;14.60;;;9.60;;
57297;SDS011;43147;50.972;18.210;2023-03-07T12:55:56;97.90;;;24.00;;
57297;SDS011;43147;50.972;18.210;2023-03-07T13:01:18;118.10;;;37.40;;
57297;SDS011;43147;50.972;18.210;2023-03-07T13:06:48;30.60;;;17.40;;
57297;SDS011;43147;50.972;18.210;2023-03-07T13:09:19;20.20;;;13.80;;
57297;SDS011;43147;50.972;18.210;2023-03-07T13:12:07;17.30;;;10.90;;
57297;SDS011;43147;50.972;18.210;2023-03-07T13:14:48;19.10;;;9.10;;
57297;SDS011;43147;50.972;18.210;2023-03-07T13:40:21;17.90;;;8.10;;
57297;SDS011;43147;50.972;18.210;2023-03-07T13:42:51;11.00;;;7.90;;
57297;SDS011;43147;50.972;18.210;2023-03-07T13:48:04;34.30;;;16.50;;
57297;SDS011;43147;50.972;18.210;2023-03-07T13:53:01;45.10;;;19.70;;
57297;SDS011;43147;50.972;18.210;2023-03-07T13:55:28;19.70;;;12.00;;
57297;SDS011;43147;50.972;18.210;2023-03-07T13:57:59;26.20;;;15.20;;
57297;SDS011;43147;50.972;18.210;2023-03-07T14:00:33;29.90;;;16.60;;
57297;SDS011;43147;50.972;18.210;2023-03-07T14:03:01;233.50;;;65.00;;
57297;SDS011;43147;50.972;18.210;2023-03-07T14:05:30;149.50;;;49.80;;
57297;SDS011;43147;50.972;18.210;2023-03-07T14:07:56;76.50;;;29.10;;
57297;SDS011;43147;50.972;18.210;2023-03-07T14:10:23;78.90;;;33.50;;
57297;SDS011;43147;50.972;18.210;2023-03-07T14:15:57;26.10;;;14.20;;
57297;SDS011;43147;50.972;18.210;2023-03-07T14:26:54;15.30;;;8.40;;
57297;SDS011;43147;50.972;18.210;2023-03-07T14:29:22;10.20;;;7.30;;
57297;SDS011;43147;50.972;18.210;2023-03-07T14:31:51;10.80;;;7.40;;
57297;SDS011;43147;50.972;18.210;2023-03-07T14:34:29;11.40;;;6.80;;
57297;SDS011;43147;50.972;18.210;2023-03-07T14:37:00;11.60;;;8.00;;
57297;SDS011;43147;50.972;18.210;2023-03-07T14:44:55;12.60;;;8.00;;
57297;SDS011;43147;50.972;18.210;2023-03-07T14:50:43;11.70;;;7.50;;
57297;SDS011;43147;50.972;18.210;2023-03-07T14:53:22;10.00;;;6.90;;
57297;SDS011;43147;50.972;18.210;2023-03-07T14:55:53;12.60;;;7.90;;
57297;SDS011;43147;50.972;18.210;2023-03-07T14:58:24;14.00;;;9.00;;
57297;SDS011;43147;50.972;18.210;2023-03-07T15:00:58;9.70;;;6.80;;
57297;SDS011;43147;50.972;18.210;2023-03-07T15:03:24;11.00;;;6.50;;
57297;SDS011;43147;50.972;18.210;2023-03-07T15:05:52;13.40;;;7.20;;
57297;SDS011;43147;50.972;18.210;2023-03-07T15:08:24;14.90;;;8.60;;
57297;SDS011;43147;50.972;18.210;2023-03-07T15:16:00;14.00;;;7.40;;
57297;SDS011;43147;50.972;18.210;2023-03-07T15:21:45;19.70;;;9.00;;
57297;SDS011;43147;50.972;18.210;2023-03-07T15:24:23;37.80;;;19.10;;
57297;SDS011;43147;50.972;18.210;2023-03-07T15:26:57;22.10;;;11.70;;
57297;SDS011;43147;50.972;18.210;2023-03-07T15:29:25;9.60;;;5.20;;
57297;SDS011;43147;50.972;18.210;2023-03-07T15:31:55;12.00;;;7.70;;
57297;SDS011;43147;50.972;18.210;2023-03-07T15:37:11;13.20;;;8.30;;
57297;SDS011;43147;50.972;18.210;2023-03-07T15:39:54;12.50;;;7.80;;
57297;SDS011;43147;50.972;18.210;2023-03-07T15:42:22;13.40;;;8.40;;
57297;SDS011;43147;50.972;18.210;2023-03-07T15:44:55;15.00;;;8.20;;
57297;SDS011;43147;50.972;18.210;2023-03-07T15:47:22;9.50;;;6.30;;
57297;SDS011;43147;50.972;18.210;2023-03-07T15:49:49;14.20;;;8.70;;
57297;SDS011;43147;50.972;18.210;2023-03-07T15:52:35;11.00;;;7.80;;
57297;SDS011;43147;50.972;18.210;2023-03-07T15:55:03;17.70;;;8.50;;
57297;SDS011;43147;50.972;18.210;2023-03-07T15:57:52;13.80;;;7.00;;
57297;SDS011;43147;50.972;18.210;2023-03-07T16:00:21;17.10;;;8.10;;
57297;SDS011;43147;50.972;18.210;2023-03-07T16:05:51;13.10;;;7.00;;
57297;SDS011;43147;50.972;18.210;2023-03-07T16:08:18;11.50;;;7.00;;
57297;SDS011;43147;50.972;18.210;2023-03-07T16:13:29;13.50;;;8.20;;
57297;SDS011;43147;50.972;18.210;2023-03-07T16:15:57;10.00;;;6.00;;
57297;SDS011;43147;50.972;18.210;2023-03-07T16:18:43;11.00;;;7.30;;
57297;SDS011;43147;50.972;18.210;2023-03-07T16:21:12;9.10;;;5.80;;
57297;SDS011;43147;50.972;18.210;2023-03-07T16:23:38;11.00;;;6.40;;
57297;SDS011;43147;50.972;18.210;2023-03-07T16:26:04;11.10;;;6.20;;
57297;SDS011;43147;50.972;18.210;2023-03-07T16:28:30;9.50;;;6.20;;
57297;SDS011;43147;50.972;18.210;2023-03-07T16:30:57;10.40;;;6.40;;
57297;SDS011;43147;50.972;18.210;2023-03-07T16:33:22;7.50;;;5.00;;
57297;SDS011;43147;50.972;18.210;2023-03-07T16:35:49;9.50;;;5.30;;
57297;SDS011;43147;50.972;18.210;2023-03-07T16:38:14;10.70;;;6.00;;
57297;SDS011;43147;50.972;18.210;2023-03-07T16:40:41;12.70;;;7.50;;
57297;SDS011;43147;50.972;18.210;2023-03-07T16:45:55;12.40;;;6.20;;
57297;SDS011;43147;50.972;18.210;2023-03-07T16:48:21;9.40;;;5.50;;
57297;SDS011;43147;50.972;18.210;2023-03-07T16:50:49;10.20;;;5.50;;
57297;SDS011;43147;50.972;18.210;2023-03-07T16:53:15;7.20;;;4.90;;
57297;SDS011;43147;50.972;18.210;2023-03-07T16:55:40;9.60;;;5.90;;